createdAt,value
2019-03-22T00:00:03.263Z,9.37
2019-03-22T00:02:32.963Z,9.93
2019-03-22T00:05:01.099Z,9.70
2019-03-22T00:07:27.856Z,9.80
2019-03-22T00:09:55.477Z,9.07
2019-03-22T00:12:24.083Z,10.07
2019-03-22T00:14:51.432Z,10.00
2019-03-22T00:17:18.212Z,8.67
2019-03-22T00:20:05.668Z,9.23
2019-03-22T00:22:34.243Z,10.28
2019-03-22T00:25:00.876Z,9.63
2019-03-22T00:27:28.007Z,9.88
2019-03-22T00:29:58.572Z,9.33
2019-03-22T00:32:25.188Z,9.67
2019-03-22T00:35:01.496Z,9.80
2019-03-22T00:37:46.896Z,9.73
2019-03-22T00:40:17.202Z,9.80
2019-03-22T00:42:45.103Z,11.65
2019-03-22T00:45:11.726Z,11.93
2019-03-22T00:47:38.824Z,10.57
2019-03-22T00:50:06.800Z,9.68
2019-03-22T00:52:36.551Z,10.50
2019-03-22T00:55:05.160Z,9.90
2019-03-22T00:57:33.594Z,9.50
2019-03-22T01:00:01.280Z,9.45
2019-03-22T01:02:30.799Z,9.18
2019-03-22T01:04:59.405Z,9.60
2019-03-22T01:07:26.259Z,9.00
2019-03-22T01:09:56.409Z,9.57
2019-03-22T01:12:27.665Z,9.38
2019-03-22T01:14:55.631Z,8.37
2019-03-22T01:17:23.390Z,8.33
2019-03-22T01:19:54.690Z,9.90
2019-03-22T01:22:22.523Z,9.60
2019-03-22T01:24:54.278Z,9.48
2019-03-22T01:27:23.187Z,10.17
2019-03-22T01:30:00.400Z,10.18
2019-03-22T01:32:29.089Z,9.33
2019-03-22T01:35:01.085Z,9.05
2019-03-22T01:37:32.418Z,9.20
2019-03-22T01:40:01.005Z,10.00
2019-03-22T01:42:28.837Z,9.93
2019-03-22T01:44:56.446Z,10.07
2019-03-22T01:47:23.272Z,9.43
2019-03-22T01:49:50.955Z,9.10
2019-03-22T01:52:22.034Z,9.00
2019-03-22T01:54:49.612Z,10.23
2019-03-22T01:57:33.932Z,9.00
2019-03-22T02:00:05.008Z,9.90
2019-03-22T02:02:31.958Z,10.05
2019-03-22T02:04:58.760Z,9.53
2019-03-22T02:07:26.942Z,10.23
2019-03-22T02:09:53.878Z,8.53
2019-03-22T02:12:20.578Z,9.80
2019-03-22T02:14:47.464Z,9.53
2019-03-22T02:17:14.852Z,10.13
2019-03-22T02:22:27.363Z,9.88
2019-03-22T02:24:54.059Z,9.40
2019-03-22T02:27:20.755Z,9.73
2019-03-22T02:29:49.269Z,8.53
2019-03-22T02:32:16.298Z,9.20
2019-03-22T02:34:42.984Z,9.30
2019-03-22T02:37:09.923Z,7.35
2019-03-22T02:39:36.831Z,9.60
2019-03-22T02:42:03.566Z,8.87
2019-03-22T02:44:30.318Z,9.93
2019-03-22T02:46:57.056Z,9.87
2019-03-22T02:49:23.907Z,9.18
2019-03-22T02:51:50.532Z,9.23
2019-03-22T02:54:17.173Z,9.17
2019-03-22T02:56:44.531Z,9.10
2019-03-22T02:59:11.146Z,8.53
2019-03-22T03:01:37.753Z,9.67
2019-03-22T03:04:04.677Z,8.50
2019-03-22T03:06:32.178Z,8.68
2019-03-22T03:08:59.133Z,8.60
2019-03-22T03:11:26.082Z,9.70
2019-03-22T03:13:53.165Z,9.70
2019-03-22T03:16:19.805Z,9.68
2019-03-22T03:18:46.451Z,10.00
2019-03-22T03:21:14.007Z,8.98
2019-03-22T03:23:40.904Z,8.30
2019-03-22T03:26:07.542Z,8.00
2019-03-22T03:28:37.085Z,7.47
2019-03-22T03:31:02.807Z,9.07
2019-03-22T03:33:29.683Z,8.50
2019-03-22T03:35:56.671Z,8.67
2019-03-22T03:38:23.527Z,8.50
2019-03-22T03:40:50.403Z,8.53
2019-03-22T03:43:17.158Z,8.00
2019-03-22T03:45:52.709Z,10.00
2019-03-22T03:48:19.645Z,9.93
2019-03-22T03:50:46.348Z,9.87
2019-03-22T03:53:13.196Z,8.65
2019-03-22T03:55:39.902Z,9.40
2019-03-22T03:58:06.578Z,10.30
2019-03-22T04:00:33.184Z,8.80
2019-03-22T04:02:59.999Z,10.17
2019-03-22T04:05:26.901Z,9.80
2019-03-22T04:07:53.516Z,10.10
2019-03-22T04:10:21.523Z,9.17
2019-03-22T04:12:49.332Z,9.80
2019-03-22T04:15:16.037Z,8.93
2019-03-22T04:26:04.426Z,9.50
2019-03-22T04:28:44.175Z,8.97
2019-03-22T04:31:16.777Z,8.13
2019-03-22T04:34:03.610Z,8.95
2019-03-22T04:36:32.478Z,9.05
2019-03-22T04:39:02.106Z,9.80
2019-03-22T04:41:31.983Z,8.08
2019-03-22T04:44:03.118Z,8.13
2019-03-22T04:46:31.799Z,8.78
2019-03-22T04:49:09.525Z,8.83
2019-03-22T04:51:37.391Z,9.60
2019-03-22T04:54:09.073Z,10.17
2019-03-22T04:56:36.942Z,9.93
2019-03-22T04:59:04.701Z,10.83
2019-03-22T05:01:31.509Z,10.87
2019-03-22T05:04:01.672Z,11.17
2019-03-22T05:06:28.514Z,10.57
2019-03-22T05:08:55.211Z,10.50
2019-03-22T05:11:22.104Z,10.20
2019-03-22T05:13:48.889Z,9.13
2019-03-22T05:16:15.579Z,11.03
2019-03-22T05:18:44.028Z,10.93
2019-03-22T05:21:10.762Z,10.40
2019-03-22T05:23:37.625Z,10.00
2019-03-22T05:26:05.212Z,10.50
2019-03-22T05:28:32.879Z,11.13
2019-03-22T05:30:59.481Z,10.83
2019-03-22T05:33:26.762Z,10.33
2019-03-22T05:35:54.676Z,10.63
2019-03-22T05:38:21.991Z,10.75
2019-03-22T05:40:48.672Z,9.77
2019-03-22T05:43:19.468Z,9.67
2019-03-22T05:45:47.135Z,11.47
2019-03-22T05:48:15.100Z,10.73
2019-03-22T05:50:53.834Z,11.27
2019-03-22T05:53:20.474Z,9.63
2019-03-22T05:55:47.378Z,9.15
2019-03-22T05:58:14.663Z,9.43
2019-03-22T06:00:42.845Z,8.66
2019-03-22T06:03:09.536Z,9.60
2019-03-22T06:05:37.601Z,9.67
2019-03-22T06:08:05.047Z,9.30
2019-03-22T06:10:31.948Z,9.27
2019-03-22T06:12:58.572Z,8.95
2019-03-22T06:15:26.005Z,9.13
2019-03-22T06:17:55.546Z,9.13
2019-03-22T06:20:22.494Z,9.43
2019-03-22T06:22:49.130Z,8.25
2019-03-22T06:25:16.215Z,8.20
2019-03-22T06:27:43.102Z,8.17
2019-03-22T06:30:10.165Z,8.17
2019-03-22T06:32:36.910Z,8.87
2019-03-22T06:35:03.784Z,8.40
2019-03-22T06:37:30.676Z,7.50
2019-03-22T06:39:57.713Z,8.80
2019-03-22T06:42:24.322Z,7.50
2019-03-22T06:44:51.019Z,8.03
2019-03-22T06:47:17.678Z,7.60
2019-03-22T06:49:44.305Z,7.37
2019-03-22T06:52:11.354Z,8.18
2019-03-22T06:54:38.380Z,7.70
2019-03-22T06:57:05.844Z,7.07
2019-03-22T06:59:32.864Z,7.60
2019-03-22T07:01:59.539Z,7.00
2019-03-22T07:04:26.164Z,6.80
2019-03-22T07:06:53.119Z,7.47
2019-03-22T07:09:20.165Z,6.37
2019-03-22T07:11:57.248Z,6.72
2019-03-22T07:17:13.174Z,6.13
2019-03-22T07:19:40.013Z,6.27
2019-03-22T07:27:40.401Z,5.85
2019-03-22T07:30:17.928Z,6.20
2019-03-22T07:32:37.300Z,6.33
2019-03-22T07:35:08.027Z,5.70
2019-03-22T07:37:35.630Z,5.80
2019-03-22T07:40:02.679Z,5.90
2019-03-22T07:42:29.351Z,6.27
2019-03-22T07:44:56.496Z,4.80
2019-03-22T07:47:25.363Z,5.53
2019-03-22T07:49:52.035Z,5.70
2019-03-22T07:55:05.522Z,5.33
2019-03-22T07:57:34.129Z,5.43
2019-03-22T08:00:05.183Z,4.90
2019-03-22T08:02:36.875Z,5.53
2019-03-22T08:05:03.487Z,5.83
2019-03-22T08:07:30.447Z,5.00
2019-03-22T08:09:58.432Z,5.70
2019-03-22T08:12:25.106Z,6.37
2019-03-22T08:17:41.456Z,5.17
2019-03-22T08:20:08.268Z,5.60
2019-03-22T08:22:35.170Z,5.20
2019-03-22T08:25:01.786Z,5.37
2019-03-22T08:27:28.725Z,5.30
2019-03-22T08:29:55.521Z,5.03
2019-03-22T08:32:23.098Z,4.83
2019-03-22T08:34:49.843Z,5.33
2019-03-22T08:37:18.111Z,5.50
2019-03-22T08:39:47.727Z,5.40
2019-03-22T08:42:14.177Z,5.10
2019-03-22T08:44:40.869Z,5.97
2019-03-22T08:47:07.831Z,5.78
2019-03-22T08:49:34.690Z,6.10
2019-03-22T08:52:01.434Z,5.30
2019-03-22T08:54:28.126Z,6.07
2019-03-22T08:56:55.049Z,6.37
2019-03-22T08:59:24.688Z,5.97
2019-03-22T09:01:52.310Z,6.90
2019-03-22T09:04:19.205Z,6.20
2019-03-22T09:06:47.121Z,7.83
2019-03-22T09:09:13.832Z,8.93
2019-03-22T09:11:40.685Z,8.23
2019-03-22T09:14:07.379Z,9.60
2019-03-22T09:16:34.088Z,10.20
2019-03-22T09:19:02.496Z,10.34
2019-03-22T09:21:29.119Z,11.10
2019-03-22T09:23:56.704Z,10.40
2019-03-22T09:26:23.623Z,10.30
2019-03-22T09:28:50.469Z,10.10
2019-03-22T09:31:17.081Z,9.77
2019-03-22T09:33:43.676Z,10.03
2019-03-22T09:36:10.287Z,9.00
2019-03-22T09:38:38.000Z,10.60
2019-03-22T09:41:04.861Z,10.60
2019-03-22T09:43:31.665Z,10.17
2019-03-22T09:46:00.699Z,9.50
2019-03-22T09:48:27.336Z,10.03
2019-03-22T09:50:54.032Z,9.37
2019-03-22T09:53:21.008Z,9.18
2019-03-22T09:55:47.991Z,9.95
2019-03-22T09:58:14.591Z,9.20
2019-03-22T10:00:41.169Z,9.53
2019-03-22T10:03:07.782Z,9.33
2019-03-22T10:05:34.449Z,9.30
2019-03-22T10:08:01.361Z,9.93
2019-03-22T10:10:28.523Z,9.00
2019-03-22T10:12:55.115Z,9.17
2019-03-22T10:15:22.067Z,8.20
2019-03-22T10:20:36.719Z,9.03
2019-03-22T10:23:22.306Z,9.40
2019-03-22T10:25:53.655Z,9.28
2019-03-22T10:28:22.634Z,8.75
2019-03-22T10:30:54.112Z,9.83
2019-03-22T10:33:25.609Z,9.80
2019-03-22T10:35:52.779Z,9.37
2019-03-22T10:38:30.989Z,10.07
2019-03-22T10:40:52.419Z,9.93
2019-03-22T10:43:19.404Z,9.97
2019-03-22T10:45:46.492Z,9.63
2019-03-22T10:48:15.423Z,10.30
2019-03-22T10:50:46.721Z,9.20
2019-03-22T10:53:17.470Z,10.03
2019-03-22T10:55:46.894Z,10.00
2019-03-22T10:58:21.369Z,9.10
2019-03-22T11:00:47.847Z,9.10
2019-03-22T11:03:14.290Z,9.57
2019-03-22T11:05:41.251Z,8.73
2019-03-22T11:08:08.149Z,9.43
2019-03-22T11:10:35.083Z,8.80
2019-03-22T11:13:01.833Z,9.37
2019-03-22T11:15:28.650Z,9.60
2019-03-22T11:17:55.569Z,8.47
2019-03-22T11:20:22.507Z,9.10
2019-03-22T11:22:49.106Z,9.47
2019-03-22T11:25:15.892Z,8.57
2019-03-22T11:27:42.540Z,8.43
2019-03-22T11:30:09.107Z,9.10
2019-03-22T11:32:35.951Z,9.03
2019-03-22T11:35:03.023Z,9.60
2019-03-22T11:37:29.622Z,9.07
2019-03-22T11:39:56.380Z,9.33
2019-03-22T11:42:24.343Z,10.40
2019-03-22T11:44:50.965Z,9.33
2019-03-22T11:47:17.612Z,8.77
2019-03-22T11:49:44.538Z,9.20
2019-03-22T11:52:11.178Z,9.97
2019-03-22T11:54:37.793Z,8.63
2019-03-22T11:57:04.674Z,8.80
2019-03-22T11:59:32.951Z,9.23
2019-03-22T12:01:59.873Z,9.57
2019-03-22T12:04:26.777Z,8.93
2019-03-22T12:06:53.958Z,9.03
2019-03-22T12:09:22.955Z,9.65
2019-03-22T12:11:50.296Z,8.60
2019-03-22T12:14:17.206Z,9.00
2019-03-22T12:16:43.876Z,9.27
2019-03-22T12:19:14.579Z,8.68
2019-03-22T12:21:41.189Z,7.97
2019-03-22T12:24:08.152Z,8.87
2019-03-22T12:26:35.419Z,8.68
2019-03-22T12:29:02.569Z,8.93
2019-03-22T12:31:29.795Z,9.03
2019-03-22T12:33:56.965Z,8.20
2019-03-22T12:36:25.650Z,8.98
2019-03-22T12:38:52.542Z,8.53
2019-03-22T12:41:19.744Z,8.95
2019-03-22T12:43:46.940Z,8.20
2019-03-22T12:46:13.890Z,7.67
2019-03-22T12:48:41.136Z,8.15
2019-03-22T12:51:08.058Z,8.70
2019-03-22T12:53:34.945Z,8.40
2019-03-22T12:56:02.264Z,8.15
2019-03-22T12:58:29.187Z,8.80
2019-03-22T13:00:56.381Z,8.20
2019-03-22T13:03:24.400Z,7.83
2019-03-22T13:05:51.363Z,9.60
2019-03-22T13:08:18.282Z,8.60
2019-03-22T13:10:45.159Z,7.83
2019-03-22T13:13:12.094Z,8.43
2019-03-22T13:15:38.702Z,7.30
2019-03-22T13:18:05.632Z,8.67
2019-03-22T13:20:32.550Z,7.90
2019-03-22T13:22:59.423Z,8.50
2019-03-22T13:25:26.674Z,7.93
2019-03-22T13:27:53.504Z,7.87
2019-03-22T13:30:20.428Z,8.87
2019-03-22T13:32:52.168Z,8.23
2019-03-22T13:35:16.021Z,7.27
2019-03-22T13:37:43.782Z,8.47
2019-03-22T13:40:10.703Z,8.20
2019-03-22T13:42:37.853Z,8.15
2019-03-22T13:45:19.730Z,7.83
2019-03-22T13:47:47.187Z,7.93
2019-03-22T13:50:14.143Z,8.40
2019-03-22T13:52:41.027Z,7.67
2019-03-22T13:55:08.320Z,7.97
2019-03-22T13:57:35.189Z,7.70
2019-03-22T14:00:01.903Z,8.17
2019-03-22T14:02:30.159Z,8.23
2019-03-22T14:04:56.765Z,8.13
2019-03-22T14:07:23.630Z,7.50
2019-03-22T14:09:52.045Z,6.94
2019-03-22T14:12:18.996Z,7.30
2019-03-22T14:14:47.154Z,7.80
2019-03-22T14:17:14.021Z,7.77
2019-03-22T14:19:40.913Z,7.67
2019-03-22T14:22:07.805Z,8.03
2019-03-22T14:24:35.004Z,7.00
2019-03-22T14:27:02.027Z,7.03
2019-03-22T14:29:28.609Z,7.55
2019-03-22T14:31:55.857Z,6.95
2019-03-22T14:34:23.089Z,7.62
2019-03-22T14:36:49.978Z,7.30
2019-03-22T14:39:16.900Z,6.90
2019-03-22T14:41:43.771Z,7.53
2019-03-22T14:44:10.739Z,7.17
2019-03-22T14:46:37.674Z,6.57
2019-03-22T14:49:04.709Z,6.73
2019-03-22T14:51:31.466Z,7.50
2019-03-22T14:53:58.771Z,6.80
2019-03-22T14:56:25.773Z,6.60
2019-03-22T14:58:52.836Z,6.93
2019-03-22T15:01:20.032Z,6.58
2019-03-22T15:03:46.802Z,6.40
2019-03-22T15:06:13.708Z,7.00
2019-03-22T15:08:40.821Z,6.97
2019-03-22T15:11:07.809Z,7.13
2019-03-22T15:13:34.671Z,6.77
2019-03-22T15:16:01.634Z,5.97
2019-03-22T15:18:28.498Z,6.33
2019-03-22T15:20:55.832Z,5.85
2019-03-22T15:23:23.171Z,5.03
2019-03-22T15:25:50.513Z,6.05
2019-03-22T15:28:17.108Z,5.75
2019-03-22T15:30:44.014Z,5.60
2019-03-22T15:33:10.801Z,5.90
2019-03-22T15:35:37.762Z,6.60
2019-03-22T15:38:04.759Z,6.17
2019-03-22T15:40:31.657Z,6.80
2019-03-22T15:42:58.500Z,6.30
2019-03-22T15:45:25.828Z,7.40
2019-03-22T15:47:52.966Z,6.40
2019-03-22T15:50:19.897Z,5.83
2019-03-22T15:52:46.849Z,5.60
2019-03-22T15:55:13.837Z,6.23
2019-03-22T15:57:40.609Z,6.30
2019-03-22T16:00:07.561Z,6.03
2019-03-22T16:02:34.548Z,6.13
2019-03-22T16:05:07.898Z,6.07
2019-03-22T16:07:34.820Z,5.17
2019-03-22T16:10:01.652Z,5.90
2019-03-22T16:12:28.566Z,5.87
2019-03-22T16:14:55.193Z,5.20
2019-03-22T16:17:22.159Z,5.53
2019-03-22T16:19:50.088Z,5.30
2019-03-22T16:22:16.990Z,5.00
2019-03-22T16:24:44.917Z,5.23
2019-03-22T16:27:11.788Z,5.15
2019-03-22T16:29:38.683Z,5.30
2019-03-22T16:32:07.074Z,5.70
2019-03-22T16:34:35.278Z,5.40
2019-03-22T16:37:03.128Z,5.83
2019-03-22T16:39:31.374Z,4.87
2019-03-22T16:41:58.261Z,5.30
2019-03-22T16:44:25.419Z,4.90
2019-03-22T16:46:53.292Z,4.33
2019-03-22T16:49:21.197Z,4.50
2019-03-22T16:51:48.026Z,4.80
2019-03-22T16:54:15.660Z,4.90
2019-03-22T16:56:42.412Z,5.22
2019-03-22T16:59:09.484Z,4.47
2019-03-22T17:01:37.127Z,6.47
2019-03-22T17:04:04.964Z,6.70
2019-03-22T17:06:32.206Z,6.37
2019-03-22T17:09:00.470Z,6.05
2019-03-22T17:14:12.143Z,5.83
2019-03-22T17:16:38.871Z,6.63
2019-03-22T17:19:05.585Z,6.07
2019-03-22T17:21:32.501Z,5.20
2019-03-22T17:24:00.395Z,5.72
2019-03-22T17:26:31.316Z,6.27
2019-03-22T17:29:00.066Z,5.37
2019-03-22T17:31:26.926Z,5.58
2019-03-22T17:33:53.767Z,6.60
2019-03-22T17:36:20.432Z,6.60
2019-03-22T17:38:47.137Z,7.43
2019-03-22T17:41:14.361Z,9.30
2019-03-22T17:43:41.091Z,8.57
2019-03-22T17:46:08.793Z,9.03
2019-03-22T17:48:35.454Z,8.10
2019-03-22T17:51:02.309Z,8.27
2019-03-22T17:53:29.261Z,8.77
2019-03-22T17:55:55.882Z,7.63
2019-03-22T17:58:22.703Z,8.40
2019-03-22T18:00:49.360Z,8.57
2019-03-22T18:03:16.955Z,8.80
2019-03-22T18:05:44.841Z,7.97
2019-03-22T18:08:11.438Z,7.80
2019-03-22T18:13:31.727Z,8.73
2019-03-22T18:15:58.598Z,8.77
2019-03-22T18:18:25.174Z,8.77
2019-03-22T18:20:53.772Z,8.57
2019-03-22T18:23:24.600Z,8.70
2019-03-22T18:26:04.697Z,9.70
2019-03-22T18:28:54.288Z,8.60
2019-03-22T18:31:16.636Z,9.10
2019-03-22T18:33:52.022Z,9.63
2019-03-22T18:36:14.675Z,9.50
2019-03-22T18:39:06.942Z,10.30
2019-03-22T18:41:12.149Z,11.10
2019-03-22T18:43:47.805Z,11.07
2019-03-22T18:46:12.177Z,11.13
2019-03-22T18:48:40.895Z,9.60
2019-03-22T18:51:09.352Z,10.00
2019-03-22T18:53:38.970Z,9.88
2019-03-22T18:56:19.996Z,10.33
2019-03-22T18:58:47.449Z,9.58
2019-03-22T19:01:19.719Z,9.93
2019-03-22T19:06:24.514Z,9.00
2019-03-22T19:08:50.392Z,8.63
2019-03-22T19:11:16.949Z,8.30
2019-03-22T19:13:45.651Z,8.30
2019-03-22T19:16:14.543Z,9.33
2019-03-22T19:18:49.287Z,9.53
2019-03-22T19:21:21.968Z,10.65
2019-03-22T19:23:50.583Z,9.33
2019-03-22T19:26:21.160Z,9.27
2019-03-22T19:28:52.594Z,9.80
2019-03-22T19:31:20.229Z,9.77
2019-03-22T19:33:49.132Z,9.37
2019-03-22T19:36:18.826Z,12.83
2019-03-22T19:38:48.606Z,18.57
2019-03-22T19:41:18.623Z,13.50
2019-03-22T19:43:45.476Z,10.50
2019-03-22T19:49:28.556Z,8.57
2019-03-22T19:51:58.586Z,8.47
2019-03-22T19:54:30.355Z,9.77
2019-03-22T19:57:01.546Z,8.15
2019-03-22T19:59:32.243Z,9.30
2019-03-22T20:02:01.009Z,9.83
2019-03-22T20:04:28.570Z,9.60
2019-03-22T20:06:55.448Z,10.00
2019-03-22T20:09:24.065Z,10.03
2019-03-22T20:11:52.776Z,10.57
2019-03-22T20:14:19.375Z,10.57
2019-03-22T20:16:46.095Z,10.80
2019-03-22T20:21:58.274Z,11.07
2019-03-22T20:24:25.944Z,11.77
2019-03-22T20:26:59.785Z,13.13
2019-03-22T20:29:27.451Z,12.77
2019-03-22T20:31:54.306Z,10.77
2019-03-22T20:34:21.205Z,11.60
2019-03-22T20:36:47.925Z,11.97
2019-03-22T20:39:14.615Z,11.83
2019-03-22T20:41:41.453Z,12.03
2019-03-22T20:44:08.903Z,12.13
2019-03-22T20:46:36.147Z,11.27
2019-03-22T20:49:05.068Z,10.53
2019-03-22T20:51:31.224Z,11.40
2019-03-22T20:53:57.861Z,10.17
2019-03-22T20:56:24.820Z,9.63
2019-03-22T20:58:51.833Z,10.87
2019-03-22T21:01:18.454Z,10.67
2019-03-22T21:03:45.189Z,11.13
2019-03-22T21:06:12.199Z,9.80
2019-03-22T21:08:38.926Z,11.13
2019-03-22T21:11:05.815Z,10.77
2019-03-22T21:13:32.502Z,12.27
2019-03-22T21:15:59.498Z,11.50
2019-03-22T21:18:26.081Z,11.00
2019-03-22T21:20:52.689Z,12.23
2019-03-22T21:23:19.658Z,11.50
2019-03-22T21:25:46.478Z,11.27
2019-03-22T21:28:13.633Z,10.60
2019-03-22T21:30:40.252Z,11.00
2019-03-22T21:33:08.244Z,11.13
2019-03-22T21:35:37.469Z,11.30
2019-03-22T21:38:10.792Z,11.10
2019-03-22T21:40:31.867Z,11.60
2019-03-22T21:43:00.349Z,10.70
2019-03-22T21:45:26.910Z,12.23
2019-03-22T21:47:53.787Z,12.88
2019-03-22T21:50:20.482Z,11.90
2019-03-22T21:52:47.097Z,13.33
2019-03-22T21:55:13.754Z,13.43
2019-03-22T21:57:40.555Z,12.50
2019-03-22T22:00:07.156Z,12.50
2019-03-22T22:02:34.788Z,10.70
2019-03-22T22:05:01.730Z,10.53
2019-03-22T22:07:28.612Z,11.03
2019-03-22T22:09:55.197Z,11.00
2019-03-22T22:12:21.839Z,10.17
2019-03-22T22:14:49.737Z,10.87
2019-03-22T22:17:16.612Z,11.10
2019-03-22T22:19:46.927Z,9.53
2019-03-22T22:22:18.016Z,10.83
2019-03-22T22:24:45.616Z,10.87
2019-03-22T22:27:18.029Z,10.20
2019-03-22T22:29:47.560Z,11.33
2019-03-22T22:32:25.833Z,11.37
2019-03-22T22:34:55.632Z,12.27
2019-03-22T22:40:14.749Z,11.77
2019-03-22T22:42:42.378Z,11.07
2019-03-22T22:45:10.633Z,10.80
2019-03-22T22:47:39.585Z,10.03
2019-03-22T22:50:12.343Z,10.60
2019-03-22T22:52:41.740Z,9.70
2019-03-22T22:55:21.031Z,10.10
2019-03-22T22:57:49.149Z,10.80
2019-03-22T23:00:16.321Z,10.87
2019-03-22T23:02:46.909Z,10.93
2019-03-22T23:05:18.576Z,11.12
2019-03-22T23:07:47.549Z,10.70
2019-03-22T23:10:20.980Z,10.55
2019-03-22T23:12:48.750Z,10.47
2019-03-22T23:15:18.065Z,10.63
2019-03-22T23:17:46.937Z,11.13
2019-03-22T23:20:16.961Z,11.50
2019-03-22T23:22:47.604Z,11.80
2019-03-22T23:25:37.030Z,11.07
2019-03-22T23:27:45.543Z,11.70
2019-03-22T23:30:16.766Z,10.53
2019-03-22T23:35:30.610Z,10.17
2019-03-22T23:37:58.018Z,10.77
2019-03-22T23:40:28.950Z,10.83
2019-03-22T23:42:57.143Z,10.17
2019-03-22T23:45:24.503Z,10.13
2019-03-22T23:47:52.947Z,9.80
2019-03-22T23:50:20.893Z,9.17
2019-03-22T23:52:47.831Z,9.77
2019-03-22T23:55:15.502Z,9.50
2019-03-22T23:57:44.277Z,9.50
